Time,TemperatureF,DewpointF,PressureIn,WindDirection,WindDirectionDegrees,WindSpeedMPH,WindSpeedGustMPH,Humidity,HourlyPrecipIn,Conditions,Clouds,dailyrainin,SoftwareType,DateUTC
2013-07-21 00:14:00,70.9,70.6,29.82,North,0,0.0,-999.0,99,-99.99,,,0.00,Acu-Link.com,2013-07-21 05:14:00,
2013-07-21 00:29:00,70.7,70.4,29.82,NE,45,0.0,-999.0,99,-99.99,,,0.00,Acu-Link.com,2013-07-21 05:29:00,
2013-07-21 00:44:00,70.5,70.2,29.82,South,180,0.0,-999.0,99,-99.99,,,0.00,Acu-Link.com,2013-07-21 05:44:00,
2013-07-21 00:59:00,70.5,70.2,29.82,SSW,202,0.0,-999.0,99,-99.99,,,0.00,Acu-Link.com,2013-07-21 05:59:00,
2013-07-21 01:14:00,70.3,70.0,29.82,SSE,157,0.0,-999.0,99,-99.99,,,0.00,Acu-Link.com,2013-07-21 06:14:00,
2013-07-21 01:29:00,70.5,70.2,29.84,WNW,292,1.7,-999.0,99,-99.99,,,0.00,Acu-Link.com,2013-07-21 06:29:00,
2013-07-21 01:44:00,70.3,70.0,29.83,NNE,22,0.0,-999.0,99,-99.99,,,0.00,Acu-Link.com,2013-07-21 06:44:00,
2013-07-21 01:59:00,70.5,70.2,29.83,WNW,292,0.0,-999.0,99,-99.99,,,0.00,Acu-Link.com,2013-07-21 06:59:00,
2013-07-21 02:15:00,70.5,70.2,29.83,SW,225,1.7,-999.0,99,-99.99,,,0.00,Acu-Link.com,2013-07-21 07:15:00,
2013-07-21 02:30:00,70.5,70.2,29.83,NW,315,0.0,-999.0,99,-99.99,,,0.00,Acu-Link.com,2013-07-21 07:30:00,
2013-07-21 02:45:00,70.5,70.2,29.83,NW,315,0.0,-999.0,99,-99.99,,,0.00,Acu-Link.com,2013-07-21 07:45:00,
2013-07-21 03:00:00,70.3,70.0,29.83,SSE,157,0.0,-999.0,99,-99.99,,,0.00,Acu-Link.com,2013-07-21 08:00:00,
2013-07-21 03:16:00,70.3,70.0,29.83,SSW,202,0.0,-999.0,99,-99.99,,,0.00,Acu-Link.com,2013-07-21 08:16:00,
2013-07-21 03:32:00,70.0,69.7,29.83,ENE,67,0.0,-999.0,99,-99.99,,,0.00,Acu-Link.com,2013-07-21 08:32:00,
2013-07-21 03:47:00,70.0,69.7,29.83,NNE,22,0.0,-999.0,99,-99.99,,,0.00,Acu-Link.com,2013-07-21 08:47:00,
2013-07-21 04:02:00,69.8,5.9,29.84,NW,315,0.0,-999.0,8,-99.99,,,0.00,Acu-Link.com,2013-07-21 09:02:00,
2013-07-21 04:17:00,69.8,50.8,29.84,NE,45,0.0,-999.0,51,-99.99,,,0.01,Acu-Link.com,2013-07-21 09:17:00,
2013-07-21 04:32:00,69.8,54.3,29.84,NE,45,0.0,-999.0,58,-99.99,,,0.01,Acu-Link.com,2013-07-21 09:32:00,
2013-07-21 04:48:00,69.8,65.1,29.84,ENE,67,0.0,-999.0,85,-99.99,,,0.01,Acu-Link.com,2013-07-21 09:48:00,
2013-07-21 05:03:00,70.0,69.7,29.85,South,180,0.0,-999.0,99,-99.99,,,0.01,Acu-Link.com,2013-07-21 10:03:00,
2013-07-21 05:18:00,69.8,69.5,29.86,West,270,0.0,-999.0,99,-99.99,,,0.01,Acu-Link.com,2013-07-21 10:18:00,
2013-07-21 05:33:00,69.8,69.5,29.86,North,0,0.0,-999.0,99,-99.99,,,0.01,Acu-Link.com,2013-07-21 10:33:00,
2013-07-21 05:48:00,70.2,69.9,29.85,NE,45,0.0,-999.0,99,-99.99,,,0.01,Acu-Link.com,2013-07-21 10:48:00,
2013-07-21 06:03:00,70.3,70.0,29.86,SE,135,0.0,-999.0,99,-99.99,,,0.01,Acu-Link.com,2013-07-21 11:03:00,
2013-07-21 06:18:00,70.7,70.4,29.86,ENE,67,0.0,-999.0,99,-99.99,,,0.01,Acu-Link.com,2013-07-21 11:18:00,
2013-07-21 06:33:00,70.7,70.4,29.87,ESE,112,0.0,-999.0,99,-99.99,,,0.01,Acu-Link.com,2013-07-21 11:33:00,
2013-07-21 06:48:00,70.7,70.4,29.87,ESE,112,0.0,-999.0,99,-99.99,,,0.01,Acu-Link.com,2013-07-21 11:48:00,
2013-07-21 07:04:00,71.1,70.8,29.87,ESE,112,0.0,-999.0,99,-99.99,,,0.01,Acu-Link.com,2013-07-21 12:04:00,
2013-07-21 07:19:00,71.1,70.8,29.86,SW,225,0.0,-999.0,99,-99.99,,,0.01,Acu-Link.com,2013-07-21 12:19:00,
2013-07-21 07:34:00,71.1,70.8,29.87,East,90,0.0,-999.0,99,-99.99,,,0.01,Acu-Link.com,2013-07-21 12:34:00,
2013-07-21 07:49:00,71.2,70.9,29.86,ESE,112,2.7,-999.0,99,-99.99,,,0.01,Acu-Link.com,2013-07-21 12:49:00,
2013-07-21 08:04:00,71.6,71.3,29.87,East,90,0.0,-999.0,99,-99.99,,,0.01,Acu-Link.com,2013-07-21 13:04:00,
2013-07-21 08:19:00,71.8,71.5,29.88,ENE,67,0.0,-999.0,99,-99.99,,,0.01,Acu-Link.com,2013-07-21 13:19:00,
2013-07-21 08:34:00,72.1,71.8,29.88,East,90,0.0,-999.0,99,-99.99,,,0.01,Acu-Link.com,2013-07-21 13:34:00,
2013-07-21 08:49:00,72.9,64.1,29.88,ESE,112,0.0,-999.0,74,-99.99,,,0.01,Acu-Link.com,2013-07-21 13:49:00,
2013-07-21 09:04:00,73.0,72.1,29.88,ENE,67,2.2,-999.0,97,-99.99,,,0.01,Acu-Link.com,2013-07-21 14:04:00,
2013-07-21 09:19:00,74.1,73.5,29.87,NNW,337,3.2,-999.0,98,-99.99,,,0.01,Acu-Link.com,2013-07-21 14:19:00,
2013-07-21 09:35:00,75.9,75.3,29.87,ESE,112,1.7,-999.0,98,-99.99,,,0.01,Acu-Link.com,2013-07-21 14:35:00,
2013-07-21 09:50:00,79.9,79.6,29.87,SSE,157,1.7,-999.0,99,-99.99,,,0.01,Acu-Link.com,2013-07-21 14:50:00,
2013-07-21 10:05:00,80.1,79.8,29.87,ENE,67,2.7,-999.0,99,-99.99,,,0.01,Acu-Link.com,2013-07-21 15:05:00,
2013-07-21 10:20:00,81.5,79.6,29.87,SE,135,2.7,-999.0,94,-99.99,,,0.01,Acu-Link.com,2013-07-21 15:20:00,
2013-07-21 10:35:00,83.3,81.1,29.88,ESE,112,1.7,-999.0,93,-99.99,,,0.01,Acu-Link.com,2013-07-21 15:35:00,
2013-07-21 10:50:00,84.4,79.7,29.88,NE,45,1.7,-999.0,86,-99.99,,,0.01,Acu-Link.com,2013-07-21 15:50:00,
2013-07-21 11:05:00,85.6,80.2,29.88,WNW,292,2.7,-999.0,84,-99.99,,,0.01,Acu-Link.com,2013-07-21 16:05:00,
2013-07-21 11:20:00,83.1,79.9,29.88,West,270,2.2,-999.0,90,-99.99,,,0.01,Acu-Link.com,2013-07-21 16:20:00,
2013-07-21 11:35:00,86.0,80.9,29.88,ENE,67,2.7,-999.0,85,-99.99,,,0.01,Acu-Link.com,2013-07-21 16:35:00,
2013-07-21 11:51:00,86.5,81.1,29.87,ESE,112,2.2,-999.0,84,-99.99,,,0.01,Acu-Link.com,2013-07-21 16:51:00,
2013-07-21 12:06:00,84.4,80.8,29.87,West,270,1.1,-999.0,89,-99.99,,,0.01,Acu-Link.com,2013-07-21 17:06:00,
2013-07-21 12:21:00,83.8,81.9,29.86,South,180,2.7,-999.0,94,-99.99,,,0.01,Acu-Link.com,2013-07-21 17:21:00,
2013-07-21 12:36:00,85.5,81.5,29.86,SSE,157,0.0,-999.0,88,-99.99,,,0.01,Acu-Link.com,2013-07-21 17:36:00,
2013-07-21 12:51:00,85.5,82.2,29.85,SW,225,1.7,-999.0,90,-99.99,,,0.01,Acu-Link.com,2013-07-21 17:51:00,
2013-07-21 13:06:00,86.2,82.2,29.84,ESE,112,3.7,-999.0,88,-99.99,,,0.01,Acu-Link.com,2013-07-21 18:06:00,
2013-07-21 13:21:00,87.4,81.2,29.83,West,270,2.2,-999.0,82,-99.99,,,0.01,Acu-Link.com,2013-07-21 18:21:00,
2013-07-21 13:36:00,87.3,82.6,29.82,ESE,112,2.7,-999.0,86,-99.99,,,0.01,Acu-Link.com,2013-07-21 18:36:00,
2013-07-21 13:51:00,87.1,81.3,29.81,SW,225,2.7,-999.0,83,-99.99,,,0.01,Acu-Link.com,2013-07-21 18:51:00,
2013-07-21 14:07:00,88.5,81.1,29.81,SW,225,2.7,-999.0,79,-99.99,,,0.01,Acu-Link.com,2013-07-21 19:07:00,
2013-07-21 14:22:00,88.0,82.5,29.79,South,180,0.0,-999.0,84,-99.99,,,0.01,Acu-Link.com,2013-07-21 19:22:00,
2013-07-21 14:37:00,88.9,83.0,29.80,ESE,112,2.2,-999.0,83,-99.99,,,0.01,Acu-Link.com,2013-07-21 19:37:00,
2013-07-21 14:52:00,90.1,81.9,29.80,ESE,112,1.7,-999.0,77,-99.99,,,0.01,Acu-Link.com,2013-07-21 19:52:00,
2013-07-21 15:07:00,91.0,82.8,29.78,East,90,4.2,-999.0,77,-99.99,,,0.01,Acu-Link.com,2013-07-21 20:07:00,
2013-07-21 15:22:00,91.4,80.6,29.78,ENE,67,0.0,-999.0,71,-99.99,,,0.01,Acu-Link.com,2013-07-21 20:22:00,
2013-07-21 15:37:00,92.8,82.0,29.78,SSE,157,1.7,-999.0,71,-99.99,,,0.01,Acu-Link.com,2013-07-21 20:37:00,
2013-07-21 15:52:00,89.6,81.0,29.78,SSW,202,1.7,-999.0,76,-99.99,,,0.01,Acu-Link.com,2013-07-21 20:52:00,
2013-07-21 16:07:00,89.6,81.4,29.78,SSE,157,0.0,-999.0,77,-99.99,,,0.01,Acu-Link.com,2013-07-21 21:07:00,
2013-07-21 16:23:00,89.1,80.9,29.77,SSW,202,1.7,-999.0,77,-99.99,,,0.01,Acu-Link.com,2013-07-21 21:23:00,
2013-07-21 16:38:00,88.5,80.3,29.78,SSW,202,0.0,-999.0,77,-99.99,,,0.01,Acu-Link.com,2013-07-21 21:38:00,
2013-07-21 16:53:00,87.6,80.6,29.78,SW,225,3.2,-999.0,80,-99.99,,,0.01,Acu-Link.com,2013-07-21 21:53:00,
2013-07-21 17:08:00,87.4,81.6,29.78,WSW,247,2.7,-999.0,83,-99.99,,,0.01,Acu-Link.com,2013-07-21 22:08:00,
2013-07-21 17:23:00,87.1,82.4,29.77,SW,225,1.1,-999.0,86,-99.99,,,0.01,Acu-Link.com,2013-07-21 22:23:00,
2013-07-21 17:38:00,89.4,81.6,29.77,West,270,0.0,-999.0,78,-99.99,,,0.01,Acu-Link.com,2013-07-21 22:38:00,
2013-07-21 17:53:00,89.1,81.7,29.76,SW,225,0.0,-999.0,79,-99.99,,,0.01,Acu-Link.com,2013-07-21 22:53:00,
2013-07-21 18:08:00,87.6,81.0,29.77,WSW,247,1.7,-999.0,81,-99.99,,,0.01,Acu-Link.com,2013-07-21 23:08:00,
2013-07-21 18:23:00,85.6,84.0,29.77,SSW,202,2.7,-999.0,95,-99.99,,,0.01,Acu-Link.com,2013-07-21 23:23:00,
2013-07-21 18:39:00,83.7,83.4,29.76,SSW,202,2.7,-999.0,99,-99.99,,,0.01,Acu-Link.com,2013-07-21 23:39:00,
2013-07-21 18:54:00,82.2,81.9,29.77,SSW,202,4.7,-999.0,99,-99.99,,,0.01,Acu-Link.com,2013-07-21 23:54:00,
2013-07-21 19:09:00,79.3,79.0,29.78,WSW,247,6.3,-999.0,99,-99.99,,,0.01,Acu-Link.com,2013-07-22 00:09:00,
2013-07-21 19:24:00,76.1,75.8,29.78,SW,225,6.8,-999.0,99,-99.99,,,0.02,Acu-Link.com,2013-07-22 00:24:00,
2013-07-21 19:39:00,74.7,74.4,29.79,WSW,247,3.2,-999.0,99,-99.99,,,0.14,Acu-Link.com,2013-07-22 00:39:00,
2013-07-21 19:54:00,73.9,73.6,29.79,SSW,202,0.0,-999.0,99,-99.99,,,0.17,Acu-Link.com,2013-07-22 00:54:00,
2013-07-21 20:09:00,73.8,73.5,29.79,SW,225,0.0,-999.0,99,-99.99,,,0.18,Acu-Link.com,2013-07-22 01:09:00,
2013-07-21 20:24:00,73.6,73.3,29.78,WSW,247,0.0,-999.0,99,-99.99,,,0.23,Acu-Link.com,2013-07-22 01:24:00,
2013-07-21 20:39:00,73.4,73.1,29.79,South,180,0.0,-999.0,99,-99.99,,,0.26,Acu-Link.com,2013-07-22 01:39:00,
2013-07-21 20:54:00,73.4,73.1,29.79,ESE,112,0.0,-999.0,99,-99.99,,,0.28,Acu-Link.com,2013-07-22 01:54:00,
2013-07-21 21:10:00,73.2,72.9,29.78,South,180,0.0,-999.0,99,-99.99,,,0.28,Acu-Link.com,2013-07-22 02:10:00,
2013-07-21 21:25:00,73.2,72.9,29.80,South,180,0.0,-999.0,99,-99.99,,,0.28,Acu-Link.com,2013-07-22 02:25:00,
2013-07-21 21:40:00,73.2,72.9,29.81,SE,135,0.0,-999.0,99,-99.99,,,0.28,Acu-Link.com,2013-07-22 02:40:00,
2013-07-21 21:55:00,73.2,72.9,29.81,SSW,202,0.0,-999.0,99,-99.99,,,0.28,Acu-Link.com,2013-07-22 02:55:00,
2013-07-21 22:10:00,73.4,73.1,29.81,SE,135,0.0,-999.0,99,-99.99,,,0.28,Acu-Link.com,2013-07-22 03:10:00,
2013-07-21 22:25:00,73.2,72.9,29.81,SSE,157,0.0,-999.0,99,-99.99,,,0.28,Acu-Link.com,2013-07-22 03:25:00,
2013-07-21 22:40:00,73.2,72.9,29.80,ESE,112,0.0,-999.0,99,-99.99,,,0.28,Acu-Link.com,2013-07-22 03:40:00,
2013-07-21 22:55:00,72.9,72.6,29.80,SSE,157,0.0,-999.0,99,-99.99,,,0.28,Acu-Link.com,2013-07-22 03:55:00,
2013-07-21 23:10:00,72.5,72.2,29.80,SSE,157,1.7,-999.0,99,-99.99,,,0.28,Acu-Link.com,2013-07-22 04:10:00,
2013-07-21 23:26:00,72.3,72.0,29.79,South,180,2.2,-999.0,99,-99.99,,,0.28,Acu-Link.com,2013-07-22 04:26:00,
2013-07-21 23:41:00,72.1,71.8,29.79,South,180,0.0,-999.0,99,-99.99,,,0.28,Acu-Link.com,2013-07-22 04:41:00,
2013-07-21 23:56:00,72.1,71.8,29.78,SW,225,1.1,-999.0,99,-99.99,,,0.28,Acu-Link.com,2013-07-22 04:56:00,